This is the latest recevied weather packets stored in our database for station/object IZ1VWE-3. If no packets are shown the sender has not sent any weather packets the latest 10 day(s).
| Time | Temp. | Humidity | Pressure | Rain* | Wind** | Luminosity | Snow |
|---|---|---|---|---|---|---|---|
| 1787395086 | 31.67° C | 43% | 1275 hPa | - | - | - | - |
| 1787393886 | 32.22° C | 41% | 1275 hPa | - | - | - | - |
| 1787392686 | 32.78° C | 39% | 1275 hPa | - | - | - | - |
| 1787391485 | 32.78° C | 41% | 1275 hPa | - | - | - | - |
| 1787390285 | 35° C | 30% | 1275 hPa | - | - | - | - |
| 1787389085 | 33.89° C | 31% | 1275 hPa | - | - | - | - |
| 1787387884 | 33.33° C | 33% | 1275 hPa | - | - | - | - |
| 1787386684 | 31.67° C | 33% | 1275 hPa | - | - | - | - |
| 1787385484 | 31.11° C | 35% | 1275 hPa | - | - | - | - |
| 1787384283 | 29.44° C | 37% | 1275 hPa | - | - | - | - |
| 1787383083 | 28.89° C | 38% | 1275 hPa | - | - | - | - |
| 1787381883 | 28.33° C | 40% | 1275 hPa | - | - | - | - |
| 1787380682 | 24.44° C | 47% | 1275.1 hPa | - | - | - | - |
| 1787379482 | 21.67° C | 56% | 1275.2 hPa | - | - | - | - |
| 1787378282 | 21.11° C | 58% | 1275.2 hPa | - | - | - | - |
| 1787377081 | 20.56° C | 61% | 1275.2 hPa | - | - | - | - |
| 1787375881 | 20° C | 61% | 1275.2 hPa | - | - | - | - |
| 1787374681 | 20° C | 62% | 1275.2 hPa | - | - | - | - |
| 1787373481 | 20° C | 64% | 1275.2 hPa | - | - | - | - |
| 1787372280 | 20° C | 66% | 1275.2 hPa | - | - | - | - |
| 1787371080 | 20° C | 68% | 1275.2 hPa | - | - | - | - |
| 1787369880 | 20° C | 69% | 1275.2 hPa | - | - | - | - |
| 1787368679 | 20° C | 72% | 1275.2 hPa | - | - | - | - |
| 1787367479 | 20° C | 73% | 1275.2 hPa | - | - | - | - |
| 1787366279 | 20.56° C | 73% | 1275.2 hPa | - | - | - | - |
* Rain since midnight (hover to see other rain measurements)
** Current wind speed in m/s (hover to see current wind gust speed)